Time;durP1;ratioP1;P1;durP2;ratioP2;P2;SDS_P1;SDS_P2;PMS_P1;PMS_P2;Temp;Humidity;BMP_temperature;BMP_pressure;BME280_temperature;BME280_humidity;BME280_pressure;Samples;Min_cycle;Max_cycle;Signal;HPM_P1;HPM_P2
2022/07/13 00:01:09;;;;;;;2.70;1.38;;;16.00;99.90;;;;;;5013240;28;20026;-73
2022/07/13 00:03:36;;;;;;;2.08;1.40;;;16.00;99.90;;;;;;5013840;28;20042;-73
2022/07/13 00:06:02;;;;;;;2.17;1.40;;;16.20;99.90;;;;;;5013815;28;20022;-73
2022/07/13 00:08:27;;;;;;;1.70;1.48;;;16.40;99.90;;;;;;5013866;28;20018;-73
2022/07/13 00:10:53;;;;;;;2.17;1.50;;;16.00;99.90;;;;;;5013098;28;20084;-73
2022/07/13 00:13:18;;;;;;;2.55;1.80;;;16.10;99.90;;;;;;5013654;28;20504;-73
2022/07/13 00:15:44;;;;;;;2.78;1.50;;;16.20;99.90;;;;;;5008435;28;20027;-73
2022/07/13 00:18:10;;;;;;;3.05;1.60;;;16.30;99.90;;;;;;5009201;28;20180;-73
2022/07/13 00:20:36;;;;;;;3.15;1.45;;;16.10;99.90;;;;;;5011663;28;20038;-73
2022/07/13 00:23:01;;;;;;;2.95;1.50;;;15.90;99.90;;;;;;5013492;28;20021;-73
2022/07/13 00:25:27;;;;;;;1.52;1.42;;;16.00;99.90;;;;;;5013440;28;20030;-73
2022/07/13 00:27:52;;;;;;;3.03;1.63;;;15.90;99.90;;;;;;5013363;28;20072;-73
2022/07/13 00:30:18;;;;;;;2.53;1.42;;;15.80;99.90;;;;;;5021384;28;20522;-73
2022/07/13 00:32:43;;;;;;;4.50;1.80;;;15.70;99.90;;;;;;5033083;28;20029;-73
2022/07/13 00:35:09;;;;;;;3.33;1.58;;;15.60;99.90;;;;;;5032982;28;20025;-73
2022/07/13 00:37:34;;;;;;;2.13;1.58;;;15.50;99.90;;;;;;5033023;28;20026;-73
2022/07/13 00:40:00;;;;;;;2.05;1.60;;;15.50;99.90;;;;;;5032983;28;20052;-73
2022/07/13 00:42:26;;;;;;;1.90;1.80;;;14.90;99.90;;;;;;5032167;28;20148;-73
2022/07/13 00:44:51;;;;;;;2.85;1.58;;;14.70;99.90;;;;;;5031773;28;20025;-73
2022/07/13 00:47:17;;;;;;;1.85;1.70;;;14.90;99.90;;;;;;5032887;28;20029;-73
2022/07/13 00:49:43;;;;;;;3.60;1.70;;;15.00;99.90;;;;;;5032092;28;20064;-73
2022/07/13 00:52:10;;;;;;;1.50;1.40;;;15.20;99.90;;;;;;5012687;28;20480;-73
2022/07/13 00:54:37;;;;;;;2.17;1.70;;;15.10;99.90;;;;;;5011545;28;20480;-73
2022/07/13 00:57:06;;;;;;;2.45;1.67;;;15.10;99.90;;;;;;5012855;28;20025;-73
2022/07/13 00:59:34;;;;;;;1.77;1.40;;;15.00;99.90;;;;;;5012782;28;20022;-73
2022/07/13 01:02:00;;;;;;;4.22;1.67;;;15.00;99.90;;;;;;5011999;28;20018;-73
2022/07/13 01:04:26;;;;;;;3.10;1.70;;;14.90;99.90;;;;;;5008257;28;20033;-73
2022/07/13 01:06:54;;;;;;;1.63;1.50;;;14.90;99.90;;;;;;5009656;28;20379;-73
2022/07/13 01:09:20;;;;;;;2.00;1.60;;;15.00;99.90;;;;;;5012638;28;20061;-73
2022/07/13 01:11:46;;;;;;;1.63;1.42;;;15.00;99.90;;;;;;5011900;28;20477;-73
2022/07/13 01:14:13;;;;;;;2.97;1.50;;;15.00;99.90;;;;;;5012436;28;20034;-73
2022/07/13 01:16:39;;;;;;;3.25;1.40;;;14.90;99.90;;;;;;5007983;28;20029;-73
2022/07/13 01:19:09;;;;;;;1.77;1.58;;;14.90;99.90;;;;;;5003032;28;20022;-73
2022/07/13 01:21:36;;;;;;;1.70;1.60;;;14.90;99.90;;;;;;5011907;28;20053;-73
2022/07/13 01:24:02;;;;;;;2.10;1.70;;;14.80;99.90;;;;;;5012419;28;20026;-73
2022/07/13 01:26:27;;;;;;;1.50;1.40;;;14.90;99.90;;;;;;5011505;28;20049;-73
2022/07/13 01:28:53;;;;;;;3.85;1.60;;;14.90;99.90;;;;;;5012335;28;20033;-73
2022/07/13 01:31:45;;;;;;;1.75;1.50;;;14.70;99.90;;;;;;5010424;28;20022;-73
2022/07/13 01:34:11;;;;;;;2.45;2.05;;;14.80;99.90;;;;;;5011024;28;20263;-72
2022/07/13 01:36:37;;;;;;;2.75;1.70;;;15.20;99.90;;;;;;5012429;28;20088;-73
2022/07/13 01:39:04;;;;;;;1.75;1.65;;;15.20;99.90;;;;;;5011983;28;20452;-73
2022/07/13 01:41:29;;;;;;;2.80;1.83;;;15.00;99.90;;;;;;5011763;28;20030;-73
2022/07/13 01:43:59;;;;;;;2.53;1.50;;;15.10;99.90;;;;;;5012164;28;20541;-73
2022/07/13 01:46:25;;;;;;;2.08;1.73;;;15.10;99.90;;;;;;5012016;28;20029;-73
2022/07/13 01:48:51;;;;;;;1.92;1.65;;;14.80;99.90;;;;;;5012110;28;20072;-73
2022/07/13 01:51:17;;;;;;;1.70;1.60;;;14.80;99.90;;;;;;5011444;28;20107;-73
2022/07/13 01:53:43;;;;;;;2.72;1.80;;;14.90;99.90;;;;;;5011492;28;20109;-73
2022/07/13 01:56:08;;;;;;;2.17;1.40;;;15.10;99.90;;;;;;5010678;28;20033;-73
2022/07/13 01:58:34;;;;;;;1.60;1.50;;;15.30;99.90;;;;;;5011900;28;20028;-73
2022/07/13 02:01:00;;;;;;;2.28;1.67;;;15.30;99.90;;;;;;5011306;28;20392;-73
2022/07/13 02:03:29;;;;;;;2.42;1.50;;;15.40;99.90;;;;;;5012295;28;20034;-73
2022/07/13 02:05:55;;;;;;;1.50;1.40;;;15.40;99.90;;;;;;5007279;28;20073;-73
2022/07/13 02:08:20;;;;;;;1.50;1.40;;;15.50;99.90;;;;;;5006091;28;20038;-73
2022/07/13 02:10:46;;;;;;;4.95;1.70;;;15.60;99.90;;;;;;5011078;28;20030;-73
2022/07/13 02:13:11;;;;;;;3.13;1.40;;;15.80;99.90;;;;;;5010432;28;20456;-73
2022/07/13 02:15:37;;;;;;;1.98;1.50;;;15.70;99.90;;;;;;5010517;28;20026;-73
2022/07/13 02:18:04;;;;;;;1.70;1.50;;;15.60;99.90;;;;;;5011755;28;20587;-73
2022/07/13 02:20:30;;;;;;;1.55;1.45;;;15.40;99.90;;;;;;5011097;28;20040;-73
2022/07/13 02:22:55;;;;;;;3.55;1.90;;;15.20;99.90;;;;;;5011457;28;20458;-73
2022/07/13 02:25:21;;;;;;;2.78;1.90;;;15.00;99.90;;;;;;5011715;28;20068;-73
2022/07/13 02:27:46;;;;;;;2.85;1.73;;;15.20;99.90;;;;;;5011728;28;20026;-73
2022/07/13 02:30:14;;;;;;;6.30;1.70;;;14.80;99.90;;;;;;5011275;28;20121;-73
2022/07/13 02:32:42;;;;;;;2.10;1.90;;;14.60;99.90;;;;;;5011512;28;20030;-73
2022/07/13 02:35:08;;;;;;;2.83;1.55;;;14.30;99.90;;;;;;5006967;28;20026;-73
2022/07/13 02:37:33;;;;;;;1.88;1.65;;;14.40;99.90;;;;;;5007825;28;20025;-73
2022/07/13 02:39:59;;;;;;;2.50;2.00;;;14.60;99.90;;;;;;5015387;28;20071;-73
2022/07/13 02:42:25;;;;;;;2.45;1.80;;;14.50;99.90;;;;;;5014800;28;20038;-73
2022/07/13 02:44:53;;;;;;;2.25;1.85;;;14.50;99.90;;;;;;5015349;28;20504;-73
2022/07/13 02:47:19;;;;;;;3.00;2.00;;;14.50;99.90;;;;;;5015106;28;20092;-73
2022/07/13 02:49:45;;;;;;;1.65;1.55;;;14.60;99.90;;;;;;5015098;28;20026;-74
2022/07/13 02:52:11;;;;;;;2.55;1.80;;;14.90;99.90;;;;;;5014449;28;20021;-73
2022/07/13 02:54:37;;;;;;;1.80;1.70;;;15.00;99.90;;;;;;5015104;28;20036;-73
2022/07/13 02:57:04;;;;;;;3.45;1.90;;;15.00;99.90;;;;;;5015025;28;20038;-73
2022/07/13 02:59:35;;;;;;;2.65;1.92;;;15.00;99.90;;;;;;5010710;28;20377;-73
2022/07/13 03:02:01;;;;;;;2.47;1.90;;;15.20;99.90;;;;;;5011418;28;20026;-73
2022/07/13 03:04:26;;;;;;;2.20;1.60;;;15.30;99.90;;;;;;5015381;28;20028;-73
2022/07/13 03:06:52;;;;;;;2.28;1.70;;;15.00;99.90;;;;;;5013613;28;20025;-73
2022/07/13 03:09:18;;;;;;;2.67;1.70;;;14.90;99.90;;;;;;5014941;28;20029;-73
2022/07/13 03:11:43;;;;;;;4.82;1.90;;;15.10;99.90;;;;;;5014232;28;20456;-73
2022/07/13 03:14:09;;;;;;;2.75;1.80;;;15.00;99.90;;;;;;5015175;28;20408;-73
2022/07/13 03:16:34;;;;;;;2.20;1.70;;;15.00;99.90;;;;;;5014824;28;20030;-73
2022/07/13 03:19:00;;;;;;;1.70;1.60;;;14.80;99.90;;;;;;5013345;28;20054;-73
2022/07/13 03:21:29;;;;;;;2.03;1.70;;;14.80;99.90;;;;;;5014084;28;20491;-73
2022/07/13 03:23:58;;;;;;;1.70;1.60;;;14.90;99.90;;;;;;5010050;28;20029;-73
2022/07/13 03:26:24;;;;;;;2.38;1.70;;;14.80;99.90;;;;;;5010976;28;20061;-73
2022/07/13 03:28:50;;;;;;;3.60;1.70;;;14.80;99.90;;;;;;5014433;28;20061;-73
2022/07/13 03:31:16;;;;;;;2.00;1.80;;;15.00;99.90;;;;;;5013938;28;20049;-73
2022/07/13 03:33:42;;;;;;;2.78;1.60;;;15.10;99.90;;;;;;5014361;28;20018;-73
2022/07/13 03:36:08;;;;;;;3.08;1.73;;;15.30;99.90;;;;;;5014262;28;20495;-73
2022/07/13 03:38:34;;;;;;;1.98;1.70;;;15.10;99.90;;;;;;5009881;28;20058;-73
2022/07/13 03:41:00;;;;;;;2.78;1.85;;;15.00;99.90;;;;;;5011672;28;20542;-73
2022/07/13 03:43:26;;;;;;;1.65;1.55;;;14.90;99.90;;;;;;5014779;28;20026;-73
2022/07/13 03:45:51;;;;;;;1.90;1.80;;;14.80;99.90;;;;;;5014166;28;20106;-73
2022/07/13 03:48:18;;;;;;;2.38;1.83;;;14.70;99.90;;;;;;5014026;28;20128;-73
2022/07/13 03:50:44;;;;;;;2.20;2.00;;;14.70;99.90;;;;;;5012526;28;20034;-73
2022/07/13 03:53:09;;;;;;;2.15;1.92;;;14.40;99.90;;;;;;5014114;28;20115;-73
2022/07/13 03:55:36;;;;;;;1.90;1.58;;;14.20;99.90;;;;;;5013905;28;20491;-73
2022/07/13 03:58:02;;;;;;;2.20;2.00;;;14.20;99.90;;;;;;5014080;28;20469;-73
2022/07/13 04:00:27;;;;;;;4.18;1.85;;;14.10;99.90;;;;;;5013360;28;20034;-73
2022/07/13 04:02:53;;;;;;;3.38;1.77;;;14.60;99.90;;;;;;5013805;28;20516;-73
2022/07/13 04:05:18;;;;;;;3.25;1.83;;;14.70;99.90;;;;;;5013717;28;20468;-73
2022/07/13 04:07:44;;;;;;;2.13;2.00;;;14.40;99.90;;;;;;5013946;28;20036;-73
2022/07/13 04:10:10;;;;;;;2.97;1.83;;;14.20;99.90;;;;;;5013673;28;20033;-73
2022/07/13 04:12:35;;;;;;;4.00;2.00;;;14.00;99.90;;;;;;5013401;28;20056;-73
2022/07/13 04:15:01;;;;;;;2.42;1.98;;;14.20;99.90;;;;;;5013595;28;20053;-73
2022/07/13 04:17:26;;;;;;;2.22;2.03;;;14.10;99.90;;;;;;5014054;28;20088;-73
2022/07/13 04:19:52;;;;;;;1.90;1.70;;;14.20;99.90;;;;;;5013501;28;20037;-73
2022/07/13 04:22:17;;;;;;;3.08;2.00;;;14.40;99.90;;;;;;5011787;28;20444;-73
2022/07/13 04:24:43;;;;;;;2.53;1.90;;;14.40;99.90;;;;;;5013419;28;20424;-73
2022/07/13 04:27:08;;;;;;;2.15;1.92;;;14.50;99.90;;;;;;5013496;28;20123;-73
2022/07/13 04:29:34;;;;;;;2.78;2.00;;;14.80;99.90;;;;;;5013329;28;20092;-73
2022/07/13 04:31:59;;;;;;;3.78;1.88;;;15.00;99.90;;;;;;5012639;28;20022;-73
2022/07/13 04:34:25;;;;;;;2.90;2.22;;;15.20;99.90;;;;;;5013217;28;20022;-73
2022/07/13 04:36:51;;;;;;;2.95;1.90;;;15.20;99.90;;;;;;5012004;28;20026;-73
2022/07/13 04:39:17;;;;;;;2.53;1.83;;;15.20;99.90;;;;;;5013264;28;20025;-73
2022/07/13 04:41:43;;;;;;;2.55;2.28;;;15.40;99.90;;;;;;5012934;28;20157;-73
2022/07/13 04:44:09;;;;;;;4.18;2.03;;;15.60;99.90;;;;;;5011820;28;20411;-73
2022/07/13 04:46:34;;;;;;;2.42;1.92;;;15.70;99.90;;;;;;5012986;28;20034;-73
2022/07/13 04:49:00;;;;;;;2.75;1.98;;;15.90;99.90;;;;;;5012995;28;20572;-73
2022/07/13 04:51:25;;;;;;;2.65;2.10;;;16.00;99.90;;;;;;5012361;28;20029;-73
2022/07/13 04:53:51;;;;;;;3.25;2.10;;;16.10;99.90;;;;;;5012819;28;20022;-73
2022/07/13 04:56:17;;;;;;;2.92;2.10;;;16.10;99.90;;;;;;5012901;28;20045;-73
2022/07/13 04:58:42;;;;;;;3.33;2.00;;;16.20;99.90;;;;;;5012875;28;20284;-73
2022/07/13 05:01:08;;;;;;;3.22;2.40;;;16.40;99.90;;;;;;5011954;28;20084;-73
2022/07/13 05:03:34;;;;;;;2.33;2.13;;;16.40;99.90;;;;;;5012796;28;20093;-73
2022/07/13 05:06:00;;;;;;;2.70;2.03;;;16.70;99.90;;;;;;5010832;28;20030;-73
2022/07/13 05:08:26;;;;;;;2.30;2.10;;;16.80;99.90;;;;;;5011493;28;20365;-73
2022/07/13 05:10:53;;;;;;;2.83;1.92;;;16.90;99.90;;;;;;5010923;28;20033;-73
2022/07/13 05:13:19;;;;;;;2.53;2.30;;;17.10;99.90;;;;;;5011517;28;20049;-73
2022/07/13 05:15:45;;;;;;;2.10;1.83;;;17.10;99.90;;;;;;5011062;28;20108;-73
2022/07/13 05:18:11;;;;;;;2.55;2.10;;;17.00;99.90;;;;;;5012513;28;20112;-73
2022/07/13 05:20:37;;;;;;;1.80;1.70;;;16.90;99.90;;;;;;5011995;28;20202;-73
2022/07/13 05:23:03;;;;;;;2.35;2.00;;;17.00;99.90;;;;;;5012735;28;20372;-73
2022/07/13 05:25:28;;;;;;;2.78;1.98;;;17.10;99.90;;;;;;5012429;28;20053;-73
2022/07/13 05:27:54;;;;;;;3.72;2.15;;;17.50;99.90;;;;;;5012370;28;20089;-73
2022/07/13 05:30:20;;;;;;;3.55;2.38;;;17.60;99.90;;;;;;5011505;28;20614;-73
2022/07/13 05:32:45;;;;;;;3.13;2.00;;;17.70;99.90;;;;;;5012244;28;20022;-73
2022/07/13 05:35:11;;;;;;;4.85;2.08;;;17.80;99.90;;;;;;5012168;28;20061;-73
2022/07/13 05:37:36;;;;;;;2.47;2.08;;;17.90;99.90;;;;;;5009708;28;20080;-73
2022/07/13 05:40:03;;;;;;;2.90;2.20;;;17.80;99.90;;;;;;5012215;28;20391;-73
2022/07/13 05:42:29;;;;;;;2.30;2.10;;;17.70;99.90;;;;;;5011466;28;20488;-73
2022/07/13 05:44:54;;;;;;;2.42;2.22;;;17.70;99.90;;;;;;5011915;28;20104;-73
2022/07/13 05:47:20;;;;;;;2.55;2.05;;;17.70;99.90;;;;;;5012005;28;20037;-73
2022/07/13 05:49:45;;;;;;;2.80;2.55;;;17.80;99.90;;;;;;5008383;28;20477;-73
2022/07/13 05:52:11;;;;;;;6.07;2.33;;;17.80;99.90;;;;;;5011298;28;20105;-73
2022/07/13 05:54:37;;;;;;;3.97;2.35;;;17.90;99.90;;;;;;5011914;28;20026;-74
2022/07/13 05:57:03;;;;;;;4.15;2.42;;;18.00;99.90;;;;;;5011837;28;20076;-73
2022/07/13 05:59:28;;;;;;;7.55;2.28;;;17.90;99.90;;;;;;5011829;28;20408;-73
2022/07/13 06:01:54;;;;;;;2.58;2.30;;;18.00;99.90;;;;;;5011217;28;20069;-73
2022/07/13 06:04:20;;;;;;;3.78;2.40;;;18.10;99.90;;;;;;5007525;28;20025;-75
2022/07/13 06:06:46;;;;;;;2.80;2.25;;;18.20;99.90;;;;;;5007509;28;20034;-73
2022/07/13 06:09:12;;;;;;;3.13;2.30;;;18.20;99.90;;;;;;5011571;28;20026;-73
2022/07/13 06:11:39;;;;;;;3.53;2.13;;;18.30;99.90;;;;;;5009761;28;20049;-73
2022/07/13 06:14:05;;;;;;;2.33;2.13;;;18.30;99.90;;;;;;5010780;28;20025;-73
2022/07/13 06:16:30;;;;;;;2.50;2.30;;;18.20;99.90;;;;;;5011780;28;20030;-73
2022/07/13 06:18:56;;;;;;;3.45;2.20;;;18.20;99.90;;;;;;5011615;28;20034;-73
2022/07/13 06:21:21;;;;;;;2.72;2.22;;;18.30;99.90;;;;;;5008408;28;20067;-73
2022/07/13 06:23:47;;;;;;;6.20;2.28;;;18.30;99.90;;;;;;5011708;28;20489;-73
2022/07/13 06:26:13;;;;;;;2.25;2.03;;;18.40;99.90;;;;;;5011556;28;20068;-73
2022/07/13 06:28:38;;;;;;;2.95;2.03;;;18.40;99.90;;;;;;5010281;28;20029;-73
2022/07/13 06:31:04;;;;;;;2.35;1.98;;;18.40;99.90;;;;;;5010838;28;20030;-73
2022/07/13 06:33:29;;;;;;;2.58;2.38;;;18.50;99.90;;;;;;5011623;28;20036;-73
2022/07/13 06:35:55;;;;;;;2.92;2.17;;;18.60;99.90;;;;;;5011396;28;20030;-73
2022/07/13 06:38:20;;;;;;;3.60;2.42;;;18.70;99.90;;;;;;5010305;28;20022;-73
2022/07/13 06:40:47;;;;;;;2.75;2.35;;;18.90;99.90;;;;;;5007808;28;20031;-73
2022/07/13 06:43:13;;;;;;;2.10;1.90;;;18.80;99.90;;;;;;5011660;28;20361;-73
2022/07/13 06:45:39;;;;;;;3.30;2.00;;;18.70;99.90;;;;;;5010121;28;20057;-73
2022/07/13 06:48:05;;;;;;;2.10;1.90;;;18.70;99.90;;;;;;5011370;28;20570;-73
2022/07/13 06:50:31;;;;;;;3.55;1.98;;;18.90;99.90;;;;;;5010647;28;20038;-73
2022/07/13 06:52:57;;;;;;;1.90;1.80;;;19.00;99.90;;;;;;5010673;28;20067;-73
2022/07/13 06:55:23;;;;;;;2.42;2.22;;;19.10;99.90;;;;;;5011403;28;20025;-73
2022/07/13 06:57:48;;;;;;;3.80;2.22;;;18.90;99.90;;;;;;5009986;28;20022;-73
2022/07/13 07:00:14;;;;;;;4.47;2.22;;;19.10;99.90;;;;;;5009729;28;20030;-72
2022/07/13 07:02:40;;;;;;;2.38;1.95;;;19.10;99.90;;;;;;5009921;28;20041;-72
2022/07/13 07:05:09;;;;;;;2.25;2.05;;;19.50;99.90;;;;;;5009933;28;20026;-72
2022/07/13 07:07:35;;;;;;;1.90;1.80;;;19.60;99.90;;;;;;5006804;28;20052;-72
2022/07/13 07:10:01;;;;;;;2.10;1.90;;;19.90;99.90;;;;;;5007844;28;20029;-73
2022/07/13 07:12:27;;;;;;;2.20;2.00;;;19.80;99.90;;;;;;5010613;28;20089;-73
2022/07/13 07:14:52;;;;;;;2.25;1.98;;;19.90;99.90;;;;;;5011130;28;20034;-73
2022/07/13 07:17:18;;;;;;;3.15;2.00;;;20.00;99.90;;;;;;5011184;28;20026;-73
2022/07/13 07:19:47;;;;;;;3.92;1.88;;;20.10;99.90;;;;;;5013759;28;20140;-73
2022/07/13 07:22:13;;;;;;;2.80;2.00;;;20.00;99.90;;;;;;5030257;28;20076;-72
2022/07/13 07:24:41;;;;;;;2.80;2.10;;;20.30;99.90;;;;;;5030026;28;20399;-72
2022/07/13 07:27:09;;;;;;;2.00;1.80;;;20.50;99.90;;;;;;5034298;28;20079;-72
2022/07/13 07:29:35;;;;;;;2.72;1.70;;;20.50;99.90;;;;;;5034270;28;20079;-72
2022/07/13 07:32:04;;;;;;;2.30;1.80;;;20.40;99.90;;;;;;5033589;28;20025;-72
2022/07/13 07:34:30;;;;;;;2.58;1.77;;;20.40;99.90;;;;;;5034164;28;20018;-73
2022/07/13 07:36:55;;;;;;;3.70;1.80;;;20.80;99.90;;;;;;5034227;28;20018;-73
2022/07/13 07:39:22;;;;;;;6.97;2.03;;;20.90;99.90;;;;;;5034016;28;20119;-73
2022/07/13 07:41:48;;;;;;;3.55;2.10;;;20.90;99.90;;;;;;5033546;28;20029;-73
2022/07/13 07:44:14;;;;;;;3.85;1.90;;;21.40;99.90;;;;;;5033988;28;20029;-73
2022/07/13 07:46:41;;;;;;;2.72;1.65;;;21.40;99.90;;;;;;5033967;28;20506;-73
2022/07/13 07:49:06;;;;;;;2.65;1.75;;;21.30;99.90;;;;;;5034043;28;20036;-73
2022/07/13 07:51:32;;;;;;;3.10;2.13;;;21.30;99.90;;;;;;5017970;28;20029;-73
2022/07/13 07:53:57;;;;;;;1.77;1.67;;;21.70;99.90;;;;;;5013994;28;20420;-73
2022/07/13 07:56:24;;;;;;;2.92;1.70;;;21.90;99.90;;;;;;5014066;28;20050;-73
2022/07/13 07:58:50;;;;;;;2.83;1.92;;;21.70;99.90;;;;;;5014041;28;20025;-73
2022/07/13 08:01:16;;;;;;;3.40;1.88;;;22.10;99.90;;;;;;5013304;28;20069;-73
2022/07/13 08:03:41;;;;;;;2.95;1.80;;;22.20;99.90;;;;;;5013916;28;20095;-73
2022/07/13 08:06:07;;;;;;;1.98;1.88;;;22.10;99.90;;;;;;5012470;28;20036;-73
2022/07/13 08:08:33;;;;;;;2.63;1.85;;;22.20;99.90;;;;;;5013798;28;20341;-73
2022/07/13 08:10:59;;;;;;;2.35;1.85;;;22.50;99.90;;;;;;5013127;28;20385;-73
2022/07/13 08:13:24;;;;;;;2.17;1.50;;;22.80;99.90;;;;;;5012369;28;20041;-72
2022/07/13 08:15:50;;;;;;;2.22;1.70;;;23.10;99.90;;;;;;5012263;28;20022;-73
2022/07/13 08:18:15;;;;;;;5.20;1.60;;;23.10;99.90;;;;;;5012317;28;20033;-73
2022/07/13 08:20:41;;;;;;;3.15;1.60;;;23.20;99.90;;;;;;5013155;28;20109;-72
2022/07/13 08:23:50;;;;;;;2.65;1.73;;;23.30;99.90;;;;;;5013415;28;20396;-72
2022/07/13 08:25:52;;;;;;;1.83;1.70;;;23.30;99.90;;;;;;5013273;28;20551;-73
2022/07/13 08:28:18;;;;;;;2.92;2.20;;;23.10;99.90;;;;;;5008827;28;20125;-73
2022/07/13 08:30:44;;;;;;;3.70;1.80;;;23.20;99.90;;;;;;5005499;28;20033;-73
2022/07/13 08:33:10;;;;;;;3.45;1.92;;;23.40;99.90;;;;;;5013239;28;20032;-73
2022/07/13 08:38:35;;;;;;;3.58;1.80;;;23.80;99.90;;;;;;5013323;28;20527;-73
2022/07/13 08:41:01;;;;;;;4.85;1.77;;;24.20;99.90;;;;;;5012888;28;20057;-73
2022/07/13 08:43:27;;;;;;;4.57;1.90;;;24.00;99.90;;;;;;5013179;28;20033;-73
2022/07/13 08:45:53;;;;;;;3.72;1.67;;;24.00;99.90;;;;;;5013037;28;20033;-72
2022/07/13 08:48:29;;;;;;;3.20;1.80;;;23.90;99.90;;;;;;5011621;28;20059;-73
2022/07/13 08:50:54;;;;;;;;;;;24.00;99.90;;;;;;5012804;28;20040;-73
2022/07/13 08:53:21;;;;;;;3.42;1.65;;;24.00;99.90;;;;;;5013103;28;19906;-73
2022/07/13 08:55:48;;;;;;;5.47;2.03;;;24.10;99.90;;;;;;5011636;28;20069;-73
2022/07/13 08:58:15;;;;;;;4.60;1.63;;;24.40;99.90;;;;;;5012922;28;20488;-72
2022/07/13 09:00:42;;;;;;;2.10;1.70;;;24.40;99.90;;;;;;5012062;28;20026;-73
2022/07/13 09:03:08;;;;;;;5.78;1.80;;;24.40;99.90;;;;;;5013378;28;20108;-73
2022/07/13 09:05:34;;;;;;;6.22;1.80;;;24.40;99.90;;;;;;5012692;28;20113;-73
2022/07/13 09:08:02;;;;;;;2.25;1.90;;;24.60;99.90;;;;;;5012817;28;20029;-73
2022/07/13 09:10:28;;;;;;;2.42;1.73;;;25.00;99.90;;;;;;5012006;28;20038;-73
2022/07/13 09:12:54;;;;;;;1.83;1.67;;;25.10;99.90;;;;;;5012623;28;20109;-73
2022/07/13 09:15:19;;;;;;;2.15;1.92;;;25.30;99.90;;;;;;5012469;28;20030;-73
2022/07/13 09:17:46;;;;;;;2.97;1.55;;;25.30;99.90;;;;;;5013029;28;20030;-72
2022/07/13 09:20:15;;;;;;;3.28;2.10;;;25.10;99.90;;;;;;5012812;28;20029;-73
2022/07/13 09:22:49;;;;;;;2.25;1.63;;;25.30;99.90;;;;;;5012448;28;20036;-73
2022/07/13 09:25:25;;;;;;;3.33;1.95;;;25.50;99.90;;;;;;5012394;28;20081;-73
2022/07/13 09:27:50;;;;;;;;;;;25.70;99.90;;;;;;5012839;28;20374;-73
2022/07/13 09:30:24;;;;;;;2.72;1.88;;;25.70;99.90;;;;;;5007301;28;19916;-73
2022/07/13 09:32:51;;;;;;;2.30;1.90;;;26.00;99.90;;;;;;5009621;28;20022;-73
2022/07/13 09:35:17;;;;;;;2.15;1.83;;;26.20;99.90;;;;;;5012246;28;20022;-73
2022/07/13 09:37:42;;;;;;;1.90;1.80;;;26.20;99.90;;;;;;5012218;28;20048;-73
2022/07/13 09:40:10;;;;;;;8.98;1.95;;;26.20;99.90;;;;;;5012118;28;20121;-73
2022/07/13 09:42:42;;;;;;;2.03;1.80;;;26.90;99.90;;;;;;5007042;28;20037;-73
2022/07/13 09:48:00;;;;;;;3.78;2.00;;;27.00;99.90;;;;;;5011525;28;20060;-73
2022/07/13 09:50:41;;;;;;;2.67;1.95;;;26.90;99.90;;;;;;5009843;28;20026;-73
2022/07/13 09:53:33;;;;;;;1.95;1.67;;;26.90;99.90;;;;;;5012038;28;20018;-73
2022/07/13 09:56:00;;;;;;;4.70;2.10;;;27.00;99.90;;;;;;5011959;28;20535;-73
2022/07/13 09:58:32;;;;;;;3.00;1.90;;;27.20;99.90;;;;;;5011856;28;20021;-73
2022/07/13 10:00:59;;;;;;;2.10;1.90;;;27.30;99.90;;;;;;5011282;28;20034;-73
2022/07/13 10:03:28;;;;;;;2.35;1.95;;;27.30;99.90;;;;;;5011769;28;20034;-73
2022/07/13 10:05:54;;;;;;;2.17;1.83;;;27.50;99.90;;;;;;5011884;28;20065;-73
2022/07/13 10:08:22;;;;;;;2.13;1.92;;;27.60;99.90;;;;;;5011908;28;20334;-73
2022/07/13 10:10:48;;;;;;;2.45;1.80;;;27.30;99.90;;;;;;5011204;28;20018;-73
2022/07/13 10:13:14;;;;;;;1.77;1.67;;;27.30;99.90;;;;;;5011659;28;20065;-73
2022/07/13 10:15:40;;;;;;;1.77;1.67;;;27.70;99.90;;;;;;5011625;28;20056;-73
2022/07/13 10:18:09;;;;;;;3.35;1.83;;;28.10;99.90;;;;;;5011679;28;20611;-73
2022/07/13 10:20:37;;;;;;;1.70;1.42;;;28.10;99.90;;;;;;5011097;28;20088;-73
2022/07/13 10:23:03;;;;;;;1.40;1.30;;;28.00;99.90;;;;;;5011624;28;20061;-73
2022/07/13 10:25:45;;;;;;;1.50;1.25;;;28.30;99.70;;;;;;5011574;28;20026;-73
2022/07/13 10:28:12;;;;;;;1.70;1.20;;;28.00;99.20;;;;;;5011488;28;20022;-73
2022/07/13 10:30:38;;;;;;;3.03;1.20;;;28.00;99.20;;;;;;5010902;28;20539;-73
2022/07/13 10:33:27;;;;;;;1.67;1.30;;;28.00;99.60;;;;;;5011541;28;20103;-73
2022/07/13 10:35:55;;;;;;;2.05;1.30;;;27.90;98.90;;;;;;5011509;28;20026;-73
2022/07/13 10:38:22;;;;;;;3.28;1.30;;;27.90;99.30;;;;;;5011643;28;20026;-73
2022/07/13 10:40:48;;;;;;;1.58;1.20;;;27.90;98.60;;;;;;5010782;28;20380;-73
2022/07/13 10:43:18;;;;;;;1.67;1.50;;;27.90;98.80;;;;;;5011706;28;20500;-73
2022/07/13 10:45:48;;;;;;;2.42;1.42;;;28.10;98.60;;;;;;5011950;28;20120;-73
2022/07/13 10:48:25;;;;;;;1.58;1.48;;;28.40;97.50;;;;;;5011497;28;20403;-73
2022/07/13 10:50:58;;;;;;;1.40;1.30;;;28.90;96.50;;;;;;5011032;28;20464;-73
2022/07/13 10:53:39;;;;;;;2.58;1.25;;;29.20;96.50;;;;;;5010124;28;20381;-73
2022/07/13 10:56:16;;;;;;;2.47;1.33;;;29.50;96.10;;;;;;5011453;28;20492;-73
2022/07/13 10:58:43;;;;;;;2.20;1.40;;;29.10;95.70;;;;;;5008272;28;20049;-73
2022/07/13 11:01:33;;;;;;;2.25;1.10;;;29.10;95.60;;;;;;5014540;28;20030;-73
2022/07/13 11:03:59;;;;;;;1.52;1.17;;;29.10;95.00;;;;;;5015171;28;20025;-72
2022/07/13 11:06:25;;;;;;;1.42;1.13;;;29.00;94.60;;;;;;5015087;28;20030;-73
2022/07/13 11:09:12;;;;;;;1.52;1.20;;;28.90;94.40;;;;;;5014854;28;20037;-73
2022/07/13 11:11:53;;;;;;;3.38;1.10;;;29.10;94.20;;;;;;5014164;28;20038;-73
2022/07/13 11:14:39;;;;;;;2.30;1.13;;;28.90;94.00;;;;;;5014806;28;20091;-73
2022/07/13 11:17:17;;;;;;;1.10;1.00;;;28.90;94.70;;;;;;5014941;28;20029;-72
2022/07/13 11:19:56;;;;;;;1.75;1.27;;;29.00;94.10;;;;;;5015200;28;20049;-73
2022/07/13 11:22:23;;;;;;;1.45;1.10;;;28.70;93.50;;;;;;5013916;28;20022;-73
2022/07/13 11:25:14;;;;;;;1.25;1.15;;;28.80;94.00;;;;;;5014383;28;20400;-73
2022/07/13 11:28:03;;;;;;;1.70;1.00;;;28.90;93.70;;;;;;5014576;28;20427;-73
2022/07/13 11:30:31;;;;;;;2.00;1.00;;;29.00;93.40;;;;;;5010943;28;20034;-73
2022/07/13 11:32:58;;;;;;;3.22;1.30;;;28.80;92.80;;;;;;5014492;28;20057;-73
2022/07/13 11:35:24;;;;;;;2.35;0.80;;;28.50;92.60;;;;;;5014744;28;20502;-73
2022/07/13 11:37:51;;;;;;;2.72;1.10;;;28.40;92.40;;;;;;5014345;28;20101;-73
2022/07/13 11:40:31;;;;;;;3.40;1.50;;;28.30;92.80;;;;;;5009166;28;20030;-73
2022/07/13 11:43:00;;;;;;;1.48;0.95;;;28.30;93.30;;;;;;5013860;28;20109;-73
2022/07/13 11:45:29;;;;;;;1.95;1.00;;;28.50;93.00;;;;;;5014196;28;20030;-73
2022/07/13 11:48:03;;;;;;;2.72;1.20;;;28.80;93.50;;;;;;5014171;28;20084;-73
2022/07/13 11:50:49;;;;;;;4.03;1.00;;;29.10;93.40;;;;;;5012124;28;20032;-73
2022/07/13 11:53:28;;;;;;;2.80;1.05;;;29.20;92.50;;;;;;5013917;28;20026;-73
2022/07/13 11:55:57;;;;;;;4.22;1.30;;;29.30;92.20;;;;;;5014196;28;20037;-73
2022/07/13 11:58:25;;;;;;;2.42;1.08;;;30.00;92.70;;;;;;5014054;28;20018;-73
2022/07/13 12:00:51;;;;;;;2.40;1.00;;;29.60;90.50;;;;;;5013311;28;20030;-73
2022/07/13 12:03:25;;;;;;;1.10;1.00;;;29.10;91.20;;;;;;5013973;28;20092;-73
2022/07/13 12:05:52;;;;;;;2.15;1.10;;;28.70;90.70;;;;;;5013930;28;20029;-73
2022/07/13 12:08:17;;;;;;;2.17;1.20;;;28.60;91.20;;;;;;5013783;28;20182;-73
2022/07/13 12:10:43;;;;;;;1.33;1.23;;;28.50;91.20;;;;;;5012303;28;20551;-73
2022/07/13 12:13:09;;;;;;;3.90;1.10;;;28.30;91.30;;;;;;5013716;28;20026;-73
2022/07/13 12:15:35;;;;;;;2.30;1.20;;;28.20;91.40;;;;;;5013628;28;20084;-73
2022/07/13 12:18:04;;;;;;;1.63;1.00;;;28.20;91.30;;;;;;5013594;28;20396;-73
2022/07/13 12:20:33;;;;;;;1.48;1.15;;;28.10;91.70;;;;;;5013089;28;20018;-73
2022/07/13 12:22:59;;;;;;;3.75;1.10;;;28.20;91.30;;;;;;5013912;28;20373;-72
2022/07/13 12:25:27;;;;;;;2.25;1.10;;;28.30;91.60;;;;;;5013725;28;20041;-73
2022/07/13 12:27:54;;;;;;;1.75;1.00;;;28.40;91.50;;;;;;5011448;28;20023;-73
2022/07/13 12:30:20;;;;;;;1.90;1.10;;;28.50;92.00;;;;;;5012828;28;20308;-73
2022/07/13 12:33:01;;;;;;;2.53;1.23;;;28.40;91.10;;;;;;5013450;28;20029;-73
2022/07/13 12:35:31;;;;;;;2.65;1.20;;;28.50;91.20;;;;;;5013346;28;20029;-73
2022/07/13 12:37:58;;;;;;;1.80;1.08;;;28.70;90.70;;;;;;5009009;28;20034;-73
2022/07/13 12:40:39;;;;;;;3.42;1.10;;;28.40;90.30;;;;;;5004841;28;20423;-73
2022/07/13 12:43:15;;;;;;;2.83;1.38;;;28.40;90.30;;;;;;5013215;28;20539;-73
2022/07/13 12:45:43;;;;;;;2.58;1.42;;;28.30;90.50;;;;;;5012986;28;20037;-73
2022/07/13 12:48:16;;;;;;;4.03;1.15;;;28.50;90.90;;;;;;5013098;28;20061;-73
2022/07/13 12:50:53;;;;;;;2.00;1.10;;;28.60;90.20;;;;;;5012361;28;20574;-73
2022/07/13 12:53:18;;;;;;;1.35;1.15;;;29.00;91.10;;;;;;5012997;28;20495;-73
2022/07/13 12:55:55;;;;;;;1.77;1.20;;;29.20;91.20;;;;;;5012975;28;20026;-73